This is the latest recevied weather packets stored in our database for station/object K7LDN-13. If no packets are shown the sender has not sent any weather packets the latest 10 day(s).
| Time | Temp. | Humidity | Pressure | Rain* | Wind** | Luminosity | Snow |
|---|---|---|---|---|---|---|---|
| 1777389941 | 7.78° C | 77% | 1023 hPa | 0 mm | - | 441 W/m² | - |
| 1777389032 | 7.78° C | 77% | 1022.9 hPa | 0 mm | - | 407 W/m² | - |
| 1777388730 | 7.22° C | 79% | 1022.7 hPa | 0 mm | - | 390 W/m² | - |
| 1777388126 | 7.22° C | 81% | 1022.8 hPa | 0 mm | - | 353 W/m² | - |
| 1777387519 | 6.67° C | 81% | 1022.6 hPa | 0 mm | - | 312 W/m² | - |
| 1777387215 | 6.67° C | 80% | 1022.9 hPa | 0 mm | - | 296 W/m² | - |
| 1777386910 | 6.67° C | 80% | 1022.9 hPa | 0 mm | - | 282 W/m² | - |
| 1777386608 | 6.67° C | 80% | 1022.7 hPa | 0 mm | - | 268 W/m² | - |
| 1777385698 | 5.56° C | 80% | 1022.6 hPa | 0 mm | - | 208 W/m² | - |
| 1777385395 | 5.56° C | 81% | 1022.4 hPa | 0 mm | - | 190 W/m² | - |
| 1777384179 | 5° C | 84% | 1022.2 hPa | 0 mm | - | 129 W/m² | - |
| 1777383572 | 4.44° C | 86% | 1022.1 hPa | 0 mm | - | 109 W/m² | - |
| 1777383268 | 3.89° C | 86% | 1021.9 hPa | 0 mm | - | 97 W/m² | - |
| 1777382965 | 3.89° C | 87% | 1021.9 hPa | 0 mm | - | 86 W/m² | - |
| 1777381749 | 2.22° C | 90% | 1021.6 hPa | 0 mm | - | 50 W/m² | - |
| 1777377494 | 0.56° C | 92% | 1020.6 hPa | 0 mm | - | 0 W/m² | - |
| 1777375976 | 0.56° C | 92% | 1020.4 hPa | 0 mm | - | 0 W/m² | - |
| 1777375376 | 0.56° C | 92% | 1020.5 hPa | 0 mm | - | 0 W/m² | - |
| 1777375074 | 0.56° C | 93% | 1020.5 hPa | 0 mm | - | 0 W/m² | - |
| 1777374773 | 0.56° C | 92% | 1020.5 hPa | 0 mm | - | 0 W/m² | - |
| 1777374470 | 0° C | 92% | 1020.6 hPa | 0 mm | - | 0 W/m² | - |
| 1777373863 | 0.56° C | 92% | 1020.4 hPa | 0 mm | - | 0 W/m² | - |
| 1777372646 | 0.56° C | 91% | 1020.2 hPa | 0 mm | - | 0 W/m² | - |
| 1777372341 | 0.56° C | 91% | 1020.1 hPa | 0 mm | - | 0 W/m² | - |
| 1777372039 | 0.56° C | 91% | 1020.1 hPa | 0 mm | - | 0 W/m² | - |
* Rain latest hour (hover to see other rain measurements)
** Current wind speed in m/s (hover to see current wind gust speed)